South Coast: Past 24 Hour Conditions

 

Banquereau - 44139

11:00 AM ADT 25 July 2017Buoy position: 44.27N 57.08W
Disclaimer

This table is a summary of hourly weather conditions for the past 24 hours.
Please note that these observations might not always be representative of weather conditions over their associated marine area.

Date / Time
(ADT)
Wind(knots) Wave height(m) Wave period(s) Pressure(kPa) Air tempC) Water tempC)
25 July 2017
11:00 NE 19 gust 23 2.5 7.0 101.3 16 19
10:00 NE 19 gust 23 2.3 7.0 101.2 17 19
9:00 ENE 23 gust 33 2.2 6.0 101.3 17 19
8:00 ENE 23 gust 27 2.1 6.0 101.5 16 19
7:00 E 25 gust 29 1.8 5.0 101.6 15 19
6:00 E 25 gust 29 1.7 5.0 101.7 15 19
5:00 SE 19 gust 23 1.6 8.0 101.9 15 19
4:00 SE 19 gust 25 1.4 8.0 101.9 17 19
3:00 SSE 19 gust 25 1.2 8.0 102.0 18 19
2:00 SSE 16 gust 18 1.2 8.0 102.2 19 19
1:00 SSE 14 gust 16 0.9 8.0 102.2 19 19
0:00 SSE 10 gust 12 1.0 8.0 102.2 19 19
24 July 2017
23:00 S 8 gust 10 0.9 8.0 102.3 19 19
22:00 S 4 gust 6 0.9 8.0 102.2 19 19
21:00 S 4 gust 4 0.9 8.0 102.2 19 19
20:00 SW 6 gust 8 0.9 8.0 102.2 19 19
19:00 SSW 6 gust 8 0.9 8.0 102.2 18 19
18:00 SW 8 gust 10 0.9 8.0 102.1 19 19
17:00 WSW 6 gust 10 0.9 8.0 102.1 19 20
16:00 W 8 gust 10 1.0 8.0 102.0 18 20
15:00 W 8 gust 10 1.0 6.0 102.0 18 19
14:00 W 8 gust 10 1.0 7.0 102.0 18 19
13:00 W 8 gust 10 0.9 6.0 101.9 18 19
12:00 W 8 gust 10 0.8 7.0 101.9 18 19
11:00 W 6 gust 8 0.8 7.0 101.8 18 19

Zoom-in to make a selection

Map of Atlantic - Newfoundland marine weather areas Southwestern Grand Banks - 44138 Banquereau - 44139 Tail of the Bank - 44140 Nickerson Bank - 44251 Northeast Burgeo Bank - 44255 Blanc-Sablon Airport Cap Whittle Chevery Natashquan Airport Heath Point Miscou Island Grand Étang Ingonish Beach North Mountain St.Paul Island J.A. Douglas McCurdy Sydney Airport Charlottetown Airport East Point North Cape Argentia Bonavista Burgeo Cape Race Corner Brook Daniel's Harbour Englee Ferolle Point La Scie Port aux Basques Rocky Harbour Sagona Island St. Anthony Airport St. John's Int'l Airport St. Lawrence Stephenville Airport Twillingate Winterland Wreckhouse Cartwright Airport Mary's Harbour Grates Cove Pool's Island Marticot Island Long Pond Eskasoni (First Nations) Îles de la Madeleine Airport
Legend:
buoy Buoy
land station Land Station

Atlantic - Newfoundland Area

Another Region

What we are doing

Features

UV Index and sun protection

Be weather wise!

Extreme Heat Protection

Be prepared!

Be Air Aware

Air Quality Health Index

Date modified: